< < Back
Terminal Aerodrome Forecast


Current Version              Previous Versions:   1  2  3  4  5  6  7  8  9  

Terminal Aerodrome Forecast

720
FTUS44 KHUN 112334
TAFHSV
TAF
KHSV 112334Z 1200/1224 VRB04KT P6SM SCT250
     FM120500 VRB03KT P6SM BKN120
     FM121500 30010KT P6SM SCT040=



Latest METAR

497
SAUS80 KWBC 120500
MTRHSV
METAR KHSV 120453Z 06008KT 10SM BKN180 04/M05 A3019 RMK AO2 SLP224
T00391050


USA.gov is the U.S. government's official web portal to all federal, state and local government web resources and services.